createdAt,value
2022-08-23T00:02:27.221Z,19.60
2022-08-23T00:05:09.254Z,19.46
2022-08-23T00:07:40.272Z,19.23
2022-08-23T00:10:15.990Z,19.50
2022-08-23T00:12:47.179Z,19.54
2022-08-23T00:15:18.786Z,19.32
2022-08-23T00:17:48.796Z,19.53
2022-08-23T00:20:20.545Z,19.31
2022-08-23T00:22:48.890Z,19.31
2022-08-23T00:25:18.289Z,19.48
2022-08-23T00:27:46.879Z,19.51
2022-08-23T00:30:16.708Z,19.25
2022-08-23T00:32:48.217Z,19.35
2022-08-23T00:35:26.608Z,19.33
2022-08-23T00:38:31.756Z,19.32
2022-08-23T00:40:51.535Z,19.35
2022-08-23T00:43:47.784Z,19.29
2022-08-23T00:47:03.482Z,19.07
2022-08-23T00:49:33.862Z,19.04
2022-08-23T00:52:26.154Z,18.95
2022-08-23T00:54:55.201Z,18.83
2022-08-23T00:57:23.754Z,18.95
2022-08-23T00:59:51.889Z,18.85
2022-08-23T01:02:20.530Z,18.96
2022-08-23T01:05:00.537Z,18.97
2022-08-23T01:07:46.401Z,19.02
2022-08-23T01:10:32.305Z,18.79
2022-08-23T01:13:15.489Z,18.70
2022-08-23T01:15:57.286Z,18.69
2022-08-23T01:18:28.733Z,18.82
2022-08-23T01:21:14.607Z,18.81
2022-08-23T01:23:51.794Z,18.58
2022-08-23T01:26:23.231Z,18.77
2022-08-23T01:28:53.875Z,18.72
2022-08-23T01:31:24.148Z,18.57
2022-08-23T01:34:07.652Z,18.72
2022-08-23T01:36:37.741Z,18.81
2022-08-23T01:39:08.333Z,18.82
2022-08-23T01:41:38.960Z,18.78
2022-08-23T01:44:08.925Z,18.86
2022-08-23T01:46:39.044Z,18.84
2022-08-23T01:49:08.501Z,18.85
2022-08-23T01:51:37.666Z,18.67
2022-08-23T01:54:06.632Z,18.96
2022-08-23T01:56:38.646Z,18.71
2022-08-23T01:59:11.184Z,18.85
2022-08-23T02:01:44.791Z,18.97
2022-08-23T02:04:13.058Z,19.00
2022-08-23T02:06:41.075Z,18.82
2022-08-23T02:09:17.910Z,19.06
2022-08-23T02:11:48.320Z,19.03
2022-08-23T02:14:20.962Z,19.06
2022-08-23T02:17:03.009Z,19.08
2022-08-23T02:19:37.982Z,18.90
2022-08-23T02:22:08.948Z,19.02
2022-08-23T02:24:42.964Z,19.04
2022-08-23T02:27:14.895Z,18.84
2022-08-23T02:29:46.655Z,18.98
2022-08-23T02:32:18.122Z,19.02
2022-08-23T02:34:59.882Z,19.02
2022-08-23T02:37:34.516Z,19.00
2022-08-23T02:40:06.452Z,18.99
2022-08-23T02:42:34.885Z,19.04
2022-08-23T02:45:04.422Z,18.96
2022-08-23T02:47:38.659Z,18.96
2022-08-23T02:50:16.724Z,19.00
2022-08-23T02:52:45.915Z,18.43
2022-08-23T02:55:14.802Z,18.96
2022-08-23T02:57:43.179Z,18.80
2022-08-23T03:00:15.305Z,18.54
2022-08-23T03:02:44.616Z,18.96
2022-08-23T03:05:14.357Z,18.96
2022-08-23T03:07:43.417Z,18.78
2022-08-23T03:10:12.803Z,19.01
2022-08-23T03:12:47.629Z,19.01
2022-08-23T03:15:15.722Z,18.85
2022-08-23T03:17:43.674Z,18.92
2022-08-23T03:20:11.986Z,18.99
2022-08-23T03:22:40.394Z,18.81
2022-08-23T03:25:19.256Z,18.89
2022-08-23T03:28:13.594Z,18.94
2022-08-23T03:30:46.190Z,18.68
2022-08-23T03:33:15.837Z,18.59
2022-08-23T03:35:48.970Z,18.79
2022-08-23T03:38:20.400Z,18.81
2022-08-23T03:40:52.505Z,18.77
2022-08-23T03:43:21.578Z,18.69
2022-08-23T03:45:50.182Z,18.49
2022-08-23T03:48:18.624Z,18.73
2022-08-23T03:50:47.569Z,18.71
2022-08-23T03:53:16.358Z,18.76
2022-08-23T03:55:46.907Z,18.59
2022-08-23T03:58:18.384Z,18.87
2022-08-23T04:00:46.638Z,18.86
2022-08-23T04:03:15.123Z,18.94
2022-08-23T04:06:04.397Z,18.89
2022-08-23T04:08:33.553Z,18.93
2022-08-23T04:11:06.537Z,18.99
2022-08-23T04:13:36.525Z,19.10
2022-08-23T04:16:05.674Z,19.03
2022-08-23T04:18:35.309Z,19.12
2022-08-23T04:21:10.717Z,19.30
2022-08-23T04:23:40.047Z,19.59
2022-08-23T04:26:09.727Z,19.52
2022-08-23T04:28:41.771Z,19.88
2022-08-23T04:31:09.848Z,19.92
2022-08-23T04:33:41.077Z,19.99
2022-08-23T04:36:12.884Z,20.27
2022-08-23T04:38:41.047Z,20.25
2022-08-23T04:41:30.401Z,20.32
2022-08-23T04:43:59.778Z,20.41
2022-08-23T04:46:29.288Z,20.59
2022-08-23T04:49:01.211Z,20.49
2022-08-23T04:51:29.490Z,20.55
2022-08-23T04:53:57.662Z,20.78
2022-08-23T04:56:44.686Z,21.10
2022-08-23T04:59:20.252Z,21.37
2022-08-23T05:01:51.040Z,21.60
2022-08-23T05:04:19.252Z,21.91
2022-08-23T05:06:47.760Z,21.94
2022-08-23T05:09:20.333Z,22.15
2022-08-23T05:11:49.507Z,22.29
2022-08-23T05:14:18.681Z,22.51
2022-08-23T05:16:50.253Z,22.37
2022-08-23T05:19:18.327Z,22.60
2022-08-23T05:21:48.565Z,22.75
2022-08-23T05:24:17.162Z,23.09
2022-08-23T05:26:48.191Z,23.17
2022-08-23T05:29:17.400Z,23.10
2022-08-23T05:31:49.800Z,23.32
2022-08-23T05:34:22.819Z,23.61
2022-08-23T05:36:57.185Z,24.02
2022-08-23T05:39:35.949Z,24.11
2022-08-23T05:42:16.155Z,24.49
2022-08-23T05:44:45.994Z,24.55
2022-08-23T05:47:17.055Z,24.75
2022-08-23T05:50:00.103Z,25.30
2022-08-23T05:52:31.305Z,25.16
2022-08-23T05:54:59.405Z,25.07
2022-08-23T05:57:48.022Z,24.79
2022-08-23T06:00:16.439Z,24.55
2022-08-23T06:02:49.425Z,24.39
2022-08-23T06:05:20.668Z,24.59
2022-08-23T06:07:50.687Z,24.88
2022-08-23T06:10:21.681Z,25.13
2022-08-23T06:12:56.130Z,25.06
2022-08-23T06:15:25.337Z,25.19
2022-08-23T06:17:53.473Z,25.42
2022-08-23T06:20:22.571Z,25.29
2022-08-23T06:23:05.947Z,25.49
2022-08-23T06:25:39.371Z,24.83
2022-08-23T06:28:15.691Z,24.85
2022-08-23T06:30:44.375Z,24.91
2022-08-23T06:33:14.951Z,25.52
2022-08-23T06:36:11.070Z,26.20
2022-08-23T06:39:16.013Z,26.31
2022-08-23T06:42:34.506Z,26.30
2022-08-23T06:45:04.535Z,26.87
2022-08-23T06:47:43.153Z,26.18
2022-08-23T06:50:11.552Z,26.39
2022-08-23T06:53:12.709Z,26.66
2022-08-23T06:55:50.559Z,26.88
2022-08-23T06:58:27.233Z,27.38
2022-08-23T07:01:49.550Z,27.81
2022-08-23T07:04:41.487Z,27.38
2022-08-23T07:07:11.946Z,28.11
2022-08-23T07:09:41.586Z,28.50
2022-08-23T07:12:11.215Z,28.76
2022-08-23T07:14:42.665Z,28.24
2022-08-23T07:17:12.851Z,28.37
2022-08-23T07:19:44.227Z,27.96
2022-08-23T07:22:15.559Z,28.56
2022-08-23T07:24:44.196Z,29.02
2022-08-23T07:27:12.499Z,28.91
2022-08-23T07:29:55.794Z,28.59
2022-08-23T07:32:23.922Z,28.39
2022-08-23T07:34:57.584Z,29.23
2022-08-23T07:37:28.316Z,29.74
2022-08-23T07:39:58.445Z,29.97
2022-08-23T07:42:27.502Z,29.90
2022-08-23T07:44:57.752Z,29.83
2022-08-23T07:47:29.880Z,29.81
2022-08-23T07:50:01.118Z,29.48
2022-08-23T07:52:31.569Z,29.83
2022-08-23T07:54:59.782Z,29.90
2022-08-23T07:57:39.546Z,29.29
2022-08-23T08:00:27.626Z,28.57
2022-08-23T08:03:07.198Z,29.05
2022-08-23T08:05:59.614Z,28.66
2022-08-23T08:08:28.273Z,29.37
2022-08-23T08:10:56.544Z,29.70
2022-08-23T08:13:25.051Z,29.30
2022-08-23T08:15:53.972Z,29.42
2022-08-23T08:18:25.571Z,28.93
2022-08-23T08:21:15.965Z,28.96
2022-08-23T08:24:17.080Z,29.70
2022-08-23T08:26:49.570Z,30.08
2022-08-23T08:29:18.853Z,30.28
2022-08-23T08:31:52.394Z,30.58
2022-08-23T08:34:22.873Z,30.33
2022-08-23T08:36:55.463Z,30.32
2022-08-23T08:39:31.672Z,30.71
2022-08-23T08:42:47.431Z,30.95
2022-08-23T08:45:28.083Z,30.21
2022-08-23T08:48:13.203Z,30.06
2022-08-23T08:50:56.993Z,29.78
2022-08-23T08:53:40.132Z,29.71
2022-08-23T08:56:32.686Z,30.16
2022-08-23T08:59:53.617Z,30.32
2022-08-23T09:02:33.355Z,30.01
2022-08-23T09:05:38.483Z,29.77
2022-08-23T09:08:39.429Z,29.72
2022-08-23T09:11:42.987Z,28.75
2022-08-23T09:14:44.993Z,29.09
2022-08-23T09:17:32.192Z,30.14
2022-08-23T09:20:06.506Z,30.41
2022-08-23T09:22:47.788Z,30.35
2022-08-23T09:25:25.998Z,31.00
2022-08-23T09:28:04.457Z,31.20
2022-08-23T09:31:08.320Z,31.43
2022-08-23T09:33:49.469Z,30.82
2022-08-23T09:36:39.870Z,30.40
2022-08-23T09:39:30.523Z,30.15
2022-08-23T09:42:08.962Z,30.13
2022-08-23T09:44:42.183Z,29.98
2022-08-23T09:47:17.558Z,30.23
2022-08-23T09:49:54.289Z,30.37
2022-08-23T09:52:33.009Z,30.17
2022-08-23T09:55:36.370Z,30.87
2022-08-23T09:58:18.878Z,30.28
2022-08-23T10:01:19.696Z,30.55
2022-08-23T10:04:24.795Z,31.16
2022-08-23T10:06:53.923Z,30.79
2022-08-23T10:09:32.992Z,30.78
2022-08-23T10:12:07.529Z,31.24
2022-08-23T10:14:36.448Z,30.76
2022-08-23T10:17:25.061Z,31.37
2022-08-23T10:20:04.860Z,31.54
2022-08-23T10:23:05.060Z,31.52
2022-08-23T10:25:54.003Z,31.99
2022-08-23T10:29:10.212Z,31.69
2022-08-23T10:31:41.612Z,32.04
2022-08-23T10:34:31.033Z,31.96
2022-08-23T10:37:54.755Z,31.13
2022-08-23T10:41:01.576Z,31.89
2022-08-23T10:43:52.892Z,32.04
2022-08-23T10:46:23.575Z,31.72
2022-08-23T10:48:57.220Z,31.64
2022-08-23T10:51:42.902Z,31.42
2022-08-23T10:54:46.317Z,31.94
2022-08-23T10:57:22.064Z,33.03
2022-08-23T10:59:52.303Z,33.50
2022-08-23T11:02:43.090Z,34.08
2022-08-23T11:05:35.623Z,33.55
2022-08-23T11:08:35.179Z,32.92
2022-08-23T11:11:43.261Z,32.52
2022-08-23T11:14:28.300Z,33.48
2022-08-23T11:17:01.207Z,33.58
2022-08-23T11:20:00.795Z,33.26
2022-08-23T11:22:34.829Z,33.68
2022-08-23T11:25:27.040Z,33.12
2022-08-23T11:28:30.417Z,32.71
2022-08-23T11:31:11.822Z,32.73
2022-08-23T11:34:11.185Z,33.44
2022-08-23T11:36:45.972Z,32.96
2022-08-23T11:39:19.640Z,32.79
2022-08-23T11:41:54.468Z,33.35
2022-08-23T11:44:34.197Z,33.52
2022-08-23T11:47:08.330Z,33.74
2022-08-23T11:50:15.079Z,32.95
2022-08-23T11:52:52.082Z,33.34
2022-08-23T11:55:50.938Z,32.60
2022-08-23T11:58:54.338Z,32.18
2022-08-23T12:01:39.449Z,33.05
2022-08-23T12:04:37.936Z,33.66
2022-08-23T12:07:12.914Z,33.48
2022-08-23T12:09:41.095Z,33.24
2022-08-23T12:12:25.665Z,33.39
2022-08-23T12:15:02.169Z,34.12
2022-08-23T12:17:34.037Z,34.32
2022-08-23T12:20:16.911Z,34.32
2022-08-23T12:23:15.097Z,33.26
2022-08-23T12:25:44.178Z,33.92
2022-08-23T12:28:40.837Z,34.27
2022-08-23T12:31:36.713Z,34.18
2022-08-23T12:34:32.294Z,34.24
2022-08-23T12:37:31.430Z,33.52
2022-08-23T12:40:02.988Z,33.99
2022-08-23T12:42:38.485Z,33.77
2022-08-23T12:45:20.596Z,34.19
2022-08-23T12:48:01.857Z,35.04
2022-08-23T12:50:38.367Z,35.13
2022-08-23T12:53:14.989Z,33.98
2022-08-23T12:55:51.342Z,32.94
2022-08-23T12:58:33.266Z,34.35
2022-08-23T13:01:31.976Z,34.02
2022-08-23T13:04:06.537Z,34.20
2022-08-23T13:06:49.612Z,34.64
2022-08-23T13:09:28.041Z,35.35
2022-08-23T13:11:59.742Z,35.00
2022-08-23T13:14:40.373Z,35.87
2022-08-23T13:17:25.633Z,33.77
2022-08-23T13:20:01.479Z,33.96
2022-08-23T13:22:32.093Z,34.59
2022-08-23T13:25:26.886Z,34.92
2022-08-23T13:27:49.581Z,35.44
2022-08-23T13:30:25.652Z,34.48
2022-08-23T13:33:13.666Z,34.02
2022-08-23T13:35:52.050Z,34.74
2022-08-23T13:38:32.545Z,34.45
2022-08-23T13:41:13.963Z,35.05
2022-08-23T13:43:45.312Z,34.66
2022-08-23T13:46:22.903Z,34.24
2022-08-23T13:49:04.090Z,33.89
2022-08-23T13:51:38.842Z,34.27
2022-08-23T13:54:15.592Z,33.63
2022-08-23T13:56:53.346Z,33.51
2022-08-23T13:59:34.990Z,33.45
2022-08-23T14:02:12.382Z,32.74
2022-08-23T14:04:42.182Z,33.02
2022-08-23T14:07:12.635Z,32.95
2022-08-23T14:09:41.056Z,33.20
2022-08-23T14:12:19.191Z,33.11
2022-08-23T14:14:48.430Z,33.56
2022-08-23T14:17:20.620Z,34.08
2022-08-23T14:22:37.639Z,34.52
2022-08-23T14:25:07.688Z,34.64
2022-08-23T14:27:36.044Z,33.90
2022-08-23T14:30:05.840Z,34.02
2022-08-23T14:32:34.510Z,33.68
2022-08-23T14:35:02.545Z,33.42
2022-08-23T14:40:20.688Z,33.48
2022-08-23T14:42:49.536Z,32.45
2022-08-23T14:45:18.503Z,32.83
2022-08-23T14:47:47.368Z,32.86
2022-08-23T14:50:16.106Z,33.15
2022-08-23T14:52:48.111Z,33.18
2022-08-23T14:55:16.696Z,33.00
2022-08-23T14:57:44.815Z,32.56
2022-08-23T15:00:14.480Z,32.08
2022-08-23T15:02:48.889Z,31.50
2022-08-23T15:05:18.717Z,31.73
2022-08-23T15:07:46.946Z,31.94
2022-08-23T15:13:28.433Z,32.30
2022-08-23T15:15:54.143Z,31.89
2022-08-23T15:18:23.155Z,31.80
2022-08-23T15:20:51.360Z,31.38
2022-08-23T15:23:21.338Z,30.61
2022-08-23T15:25:50.549Z,30.70
2022-08-23T15:28:21.822Z,29.92
2022-08-23T15:30:51.861Z,30.33
2022-08-23T15:33:25.342Z,30.31
2022-08-23T15:35:57.414Z,30.30
2022-08-23T15:38:26.637Z,30.12
2022-08-23T15:40:56.384Z,30.13
2022-08-23T15:43:34.395Z,29.94
2022-08-23T15:46:07.546Z,29.96
2022-08-23T15:48:55.531Z,29.96
2022-08-23T15:51:25.336Z,29.87
2022-08-23T15:53:53.854Z,29.65
2022-08-23T15:56:45.000Z,29.52
2022-08-23T15:59:19.595Z,29.81
2022-08-23T16:01:50.207Z,29.87
2022-08-23T16:04:18.790Z,29.59
2022-08-23T16:06:48.450Z,29.62
2022-08-23T16:09:24.936Z,29.67
2022-08-23T16:11:57.127Z,29.12
2022-08-23T16:14:28.318Z,29.34
2022-08-23T16:16:56.840Z,29.23
2022-08-23T16:19:26.700Z,29.11
2022-08-23T16:21:57.761Z,29.19
2022-08-23T16:24:27.968Z,29.05
2022-08-23T16:26:56.696Z,28.92
2022-08-23T16:29:25.100Z,28.95
2022-08-23T16:31:53.821Z,28.73
2022-08-23T16:34:22.171Z,28.79
2022-08-23T16:36:59.177Z,28.63
2022-08-23T16:39:28.495Z,28.59
2022-08-23T16:41:56.935Z,28.43
2022-08-23T16:44:25.260Z,28.15
2022-08-23T16:46:53.931Z,28.14
2022-08-23T16:49:22.238Z,28.07
2022-08-23T16:51:50.924Z,27.85
2022-08-23T16:54:20.304Z,27.99
2022-08-23T16:56:48.755Z,27.74
2022-08-23T16:59:16.763Z,27.48
2022-08-23T17:01:58.969Z,27.58
2022-08-23T17:04:30.791Z,27.29
2022-08-23T17:07:00.592Z,27.58
2022-08-23T17:09:29.349Z,27.15
2022-08-23T17:12:01.370Z,27.42
2022-08-23T17:14:29.620Z,27.25
2022-08-23T17:16:58.105Z,27.27
2022-08-23T17:19:26.319Z,27.09
2022-08-23T17:21:54.442Z,27.02
2022-08-23T17:24:24.506Z,26.76
2022-08-23T17:26:52.687Z,26.88
2022-08-23T17:29:20.689Z,26.81
2022-08-23T17:31:49.097Z,26.89
2022-08-23T17:34:17.271Z,26.69
2022-08-23T17:36:52.815Z,26.82
2022-08-23T17:39:27.765Z,26.80
2022-08-23T17:41:59.194Z,26.74
2022-08-23T17:44:27.239Z,26.72
2022-08-23T17:46:55.535Z,26.31
2022-08-23T17:49:23.881Z,26.51
2022-08-23T17:51:52.037Z,26.50
2022-08-23T17:54:22.490Z,26.49
2022-08-23T17:56:51.351Z,26.03
2022-08-23T17:59:21.258Z,26.19
2022-08-23T18:01:49.523Z,26.17
2022-08-23T18:04:18.307Z,26.13
2022-08-23T18:06:46.877Z,25.92
2022-08-23T18:09:15.802Z,25.58
2022-08-23T18:11:44.161Z,25.84
2022-08-23T18:14:12.663Z,25.98
2022-08-23T18:16:41.584Z,25.78
2022-08-23T18:19:13.473Z,25.85
2022-08-23T18:21:45.509Z,25.85
2022-08-23T18:24:14.262Z,25.66
2022-08-23T18:27:03.758Z,25.80
2022-08-23T18:30:47.773Z,25.69
2022-08-23T18:34:34.406Z,25.63
2022-08-23T18:37:03.763Z,25.61
2022-08-23T18:39:32.422Z,25.58
2022-08-23T18:42:04.382Z,25.35
2022-08-23T18:44:32.999Z,25.51
2022-08-23T18:47:04.949Z,25.47
2022-08-23T18:49:35.844Z,25.38
2022-08-23T18:52:05.221Z,25.29
2022-08-23T18:54:34.580Z,25.32
2022-08-23T18:57:06.739Z,25.28
2022-08-23T18:59:37.960Z,25.22
2022-08-23T19:02:06.310Z,25.17
2022-08-23T19:04:34.771Z,25.06
2022-08-23T19:07:04.113Z,25.10
2022-08-23T19:09:32.363Z,24.98
2022-08-23T19:12:01.427Z,24.89
2022-08-23T19:14:30.556Z,24.86
2022-08-23T19:17:08.501Z,24.57
2022-08-23T19:19:36.882Z,24.75
2022-08-23T19:22:05.366Z,24.61
2022-08-23T19:24:34.167Z,24.61
2022-08-23T19:27:02.698Z,24.43
2022-08-23T19:29:32.074Z,24.65
2022-08-23T19:32:01.194Z,24.57
2022-08-23T19:34:30.263Z,24.40
2022-08-23T19:37:01.511Z,24.44
2022-08-23T19:39:31.049Z,24.42
2022-08-23T19:41:59.424Z,24.36
2022-08-23T19:44:28.386Z,24.33
2022-08-23T19:46:57.649Z,23.86
2022-08-23T19:49:27.092Z,24.28
2022-08-23T19:51:56.643Z,24.20
2022-08-23T19:54:28.807Z,24.24
2022-08-23T19:57:00.546Z,24.17
2022-08-23T19:59:33.308Z,23.99
2022-08-23T20:02:02.864Z,24.08
2022-08-23T20:04:34.358Z,23.85
2022-08-23T20:07:07.769Z,23.78
2022-08-23T20:09:37.052Z,23.59
2022-08-23T20:12:06.794Z,23.56
2022-08-23T20:14:35.707Z,23.32
2022-08-23T20:17:07.611Z,23.49
2022-08-23T20:19:36.661Z,23.54
2022-08-23T20:22:24.005Z,23.51
2022-08-23T20:24:53.219Z,23.49
2022-08-23T20:27:28.427Z,23.48
2022-08-23T20:30:01.818Z,22.84
2022-08-23T20:33:16.431Z,23.37
2022-08-23T20:35:44.658Z,23.33
2022-08-23T20:46:44.720Z,23.01
2022-08-23T21:03:21.711Z,22.54
2022-08-23T21:10:29.501Z,22.51
2022-08-23T21:22:15.379Z,21.79
2022-08-23T21:29:21.586Z,21.35
2022-08-23T21:41:12.197Z,21.54
2022-08-23T21:48:18.607Z,21.58
2022-08-23T21:51:12.922Z,21.77
2022-08-23T22:02:55.808Z,21.66
2022-08-23T22:14:38.933Z,20.85
2022-08-23T22:18:06.873Z,21.11
2022-08-23T22:29:54.885Z,21.01
2022-08-23T22:36:56.206Z,20.96
